Time;durP1;ratioP1;P1;durP2;ratioP2;P2;SDS_P1;SDS_P2;PMS_P1;PMS_P2;Temp;Humidity;BMP_temperature;BMP_pressure;BME280_temperature;BME280_humidity;BME280_pressure;Samples;Min_cycle;Max_cycle;Signal;HPM_P1;HPM_P2
2022/02/22 00:01:47;;;;;;;43.85;17.02;;;;;;;5.87;100.00;149135.41;1726906;82;21006;-61
2022/02/22 00:04:13;;;;;;;36.53;16.55;;;;;;;5.86;100.00;149132.81;1735575;81;21069;-58
2022/02/22 00:06:40;;;;;;;39.08;16.50;;;;;;;5.87;100.00;149136.67;1729508;82;21052;-59
2022/02/22 00:09:06;;;;;;;37.95;16.95;;;;;;;5.88;100.00;149138.00;1720315;81;21033;-59
2022/02/22 00:11:33;;;;;;;33.88;15.70;;;;;;;5.88;100.00;149138.00;1733403;80;22952;-57
2022/02/22 00:14:01;;;;;;;38.20;16.97;;;;;;;5.88;100.00;149138.00;1728990;82;47754;-61
2022/02/22 00:16:29;;;;;;;40.58;17.55;;;;;;;5.86;100.00;149132.81;1704288;82;21008;-57
2022/02/22 00:18:56;;;;;;;38.10;17.57;;;;;;;5.85;100.00;149130.19;1721497;82;21098;-61
2022/02/22 00:21:22;;;;;;;42.70;17.73;;;;;;;5.86;100.00;148516.45;1782395;79;21057;-57
2022/02/22 00:23:50;;;;;;;41.55;17.00;;;;;;;5.88;100.00;146003.22;1796625;78;21055;-57
2022/02/22 00:26:16;;;;;;;52.33;16.50;;;;;;;5.87;100.00;147536.02;1797432;79;21111;-58
2022/02/22 00:28:43;;;;;;;47.75;16.32;;;;;;;5.84;100.00;148496.39;1792318;79;21033;-58
2022/02/22 00:31:10;;;;;;;47.58;15.53;;;;;;;5.82;100.00;149122.44;1799357;78;21943;-61
2022/02/22 00:33:37;;;;;;;42.27;15.05;;;;;;;5.74;100.00;149103.03;1777841;79;21119;-57
2022/02/22 00:36:04;;;;;;;36.55;14.73;;;;;;;5.71;100.00;149096.59;1776262;78;21155;-60
2022/02/22 00:38:31;;;;;;;44.98;16.55;;;;;;;5.67;100.00;149086.27;1796630;79;20977;-62
2022/02/22 00:40:57;;;;;;;38.60;15.93;;;;;;;5.65;100.00;149081.09;1799135;79;21021;-60
2022/02/22 00:43:24;;;;;;;37.95;16.15;;;;;;;5.62;100.00;147272.42;1795701;79;21442;-61
2022/02/22 00:45:51;;;;;;;36.40;15.95;;;;;;;5.63;100.00;142543.97;1799538;79;21002;-59
2022/02/22 00:48:19;;;;;;;48.78;14.73;;;;;;;5.64;100.00;138223.31;1796172;79;21143;-58
2022/02/22 00:50:46;;;;;;;50.43;15.58;;;;;;;5.63;100.00;137015.48;1776149;79;21077;-59
2022/02/22 00:53:12;;;;;;;47.90;15.65;;;;;;;5.61;100.00;134776.64;1772053;79;21158;-58
2022/02/22 00:55:39;;;;;;;45.90;14.13;;;;;;;5.61;100.00;132542.80;1794380;79;21009;-61
2022/02/22 00:58:06;;;;;;;34.27;15.03;;;;;;;5.59;100.00;131507.70;1799923;79;21006;-59
2022/02/22 01:00:33;;;;;;;47.85;14.33;;;;;;;5.58;100.00;128760.08;1795489;79;21493;-61
2022/02/22 01:03:01;;;;;;;59.45;15.93;;;;;;;5.57;100.00;124641.06;1778228;79;20934;-61
2022/02/22 01:05:28;;;;;;;49.18;15.08;;;;;;;5.56;100.00;123953.44;1778554;78;21581;-61
2022/02/22 01:07:55;;;;;;;53.87;14.87;;;;;;;5.54;100.00;121037.49;1793975;78;21516;-61
2022/02/22 01:10:22;;;;;;;45.75;15.20;;;;;;;5.54;100.00;118128.27;1782517;79;21017;-60
2022/02/22 01:12:48;;;;;;;48.95;16.00;;;;;;;5.53;100.00;116245.09;1793541;79;21082;-61
2022/02/22 01:15:15;;;;;;;43.50;14.38;;;;;;;5.52;100.00;113167.08;1769231;79;21009;-59
2022/02/22 01:17:44;;;;;;;36.15;15.28;;;;;;;5.51;100.00;110092.81;1790634;79;21063;-57
2022/02/22 01:20:29;;;;;;;56.77;15.85;;;;;;;5.52;100.00;106171.64;1775893;78;22010;-61
2022/02/22 01:22:56;;;;;;;50.35;15.78;;;;;;;5.53;100.00;104127.48;1788893;79;21116;-60
2022/02/22 01:25:26;;;;;;;45.70;15.18;;;;;;;5.53;100.00;101743.95;1777177;79;21468;-58
2022/02/22 01:27:53;;;;;;;47.55;13.83;;;;;;;5.53;100.00;98850.75;1795865;79;20969;-57
2022/02/22 01:30:20;;;;;;;51.92;13.80;;;;;;;5.54;100.00;97831.02;1775913;79;21014;-58
2022/02/22 01:32:49;;;;;;;44.75;14.98;;;;;;;5.52;100.00;97997.67;1721426;83;20984;-58
2022/02/22 01:35:17;;;;;;;60.52;15.05;;;;;;;5.51;100.00;96465.67;1732074;80;21018;-58
2022/02/22 01:37:44;;;;;;;48.05;15.03;;;;;;;5.52;100.00;93749.27;1749527;80;21767;-58
2022/02/22 01:40:13;;;;;;;53.15;14.60;;;;;;;5.53;100.00;91203.03;1750525;80;21021;-59
2022/02/22 01:42:39;;;;;;;49.85;14.85;;;;;;;5.54;100.00;88829.02;1724653;81;21071;-58
2022/02/22 01:45:07;;;;;;;46.92;14.60;;;;;;;5.55;100.00;86965.13;1761541;80;21088;-61
2022/02/22 01:47:34;;;;;;;46.50;14.05;;;;;;;5.56;100.00;85271.64;1746919;81;21187;-58
2022/02/22 01:50:00;;;;;;;37.10;14.87;;;;;;;5.58;100.00;83580.39;1751461;80;21884;-60
2022/02/22 01:52:28;;;;;;;45.38;15.08;;;;;;;5.60;100.00;81889.86;1749761;80;21258;-62
2022/02/22 01:54:54;;;;;;;54.60;14.68;;;;;;;5.62;100.00;80199.36;1760060;79;21100;-60
2022/02/22 01:57:21;;;;;;;64.12;13.83;;;;;;;5.62;100.00;80199.36;1725421;81;21057;-61
2022/02/22 01:59:48;;;;;;;51.53;13.62;;;;;;;5.63;100.00;79017.06;1722721;81;21091;-60
2022/02/22 02:02:33;;;;;;;46.45;14.10;;;;;;;5.64;100.00;78510.98;1748786;80;21101;-60
2022/02/22 02:04:59;;;;;;;35.90;12.90;;;;;;;5.64;100.00;78510.98;1742676;80;21022;-61
2022/02/22 02:07:26;;;;;;;61.45;14.43;;;;;;;5.66;100.00;77498.97;1724207;80;21545;-61
2022/02/22 02:09:53;;;;;;;48.58;14.40;;;;;;;5.67;100.00;75978.70;1729659;80;20950;-60
2022/02/22 02:12:20;;;;;;;54.53;14.03;;;;;;;5.67;100.00;75302.63;1729786;80;21112;-61
2022/02/22 02:14:46;;;;;;;39.45;13.98;;;;;;;5.67;100.00;75133.63;1738705;80;21086;-58
2022/02/22 02:17:13;;;;;;;44.53;12.88;;;;;;;5.68;100.00;74627.34;1740053;81;21477;-58
2022/02/22 02:19:42;;;;;;;37.65;13.35;;;;;;;5.68;100.00;73614.34;1748768;80;21101;-60
2022/02/22 02:22:10;;;;;;;34.58;13.32;;;;;;;5.68;100.00;73445.43;1740900;80;21046;-60
2022/02/22 02:24:36;;;;;;;37.80;12.98;;;;;;;5.70;100.00;72941.30;1721748;81;21099;-61
2022/02/22 02:27:03;;;;;;;43.90;13.25;;;;;;;5.69;100.00;73277.16;1693145;84;21132;-61
2022/02/22 02:29:31;;;;;;;32.50;13.48;;;;;;;5.67;100.00;73106.34;1722508;81;21209;-62
2022/02/22 02:31:57;;;;;;;31.02;13.22;;;;;;;5.67;100.00;73444.14;1767614;79;21062;-58
2022/02/22 02:34:27;;;;;;;26.93;12.75;;;;;;;5.67;100.00;73613.05;1767276;80;21257;-60
2022/02/22 02:36:55;;;;;;;28.17;12.60;;;;;;;5.69;100.00;72095.68;1767514;80;21073;-60
2022/02/22 02:39:22;;;;;;;34.78;13.72;;;;;;;5.69;100.00;71419.72;1792946;78;21633;-60
2022/02/22 02:41:49;;;;;;;35.70;13.05;;;;;;;5.70;100.00;70746.41;1795135;79;21639;-61
2022/02/22 02:44:20;;;;;;;39.18;13.70;;;;;;;5.72;100.00;70241.95;1777009;79;21076;-59
2022/02/22 02:46:46;;;;;;;30.35;12.70;;;;;;;5.72;100.00;70411.36;1771972;79;21555;-60
2022/02/22 02:49:14;;;;;;;24.52;13.30;;;;;;;5.72;100.00;70579.50;1777779;78;21370;-61
2022/02/22 02:51:41;;;;;;;34.40;13.00;;;;;;;5.73;100.00;69568.20;1790836;79;21508;-59
2022/02/22 02:54:07;;;;;;;26.52;13.30;;;;;;;5.73;100.00;69737.56;1799041;79;21056;-58
2022/02/22 02:56:35;;;;;;;31.80;14.33;;;;;;;5.76;100.00;69065.10;1708274;82;21084;-59
2022/02/22 02:59:05;;;;;;;28.40;14.40;;;;;;;5.80;100.00;66371.44;1728573;81;20954;-60
2022/02/22 03:01:33;;;;;;;26.07;14.05;;;;;;;5.82;100.00;65530.91;1723606;82;21065;-57
2022/02/22 03:04:00;;;;;;;26.02;14.10;;;;;;;5.83;100.00;65869.20;1721914;81;21757;-60
2022/02/22 03:06:27;;;;;;;28.85;14.25;;;;;;;5.86;100.00;65872.73;1744646;81;21754;-57
2022/02/22 03:08:54;;;;;;;27.37;15.05;;;;;;;5.87;100.00;65536.73;1760908;79;21087;-58
2022/02/22 03:11:20;;;;;;;35.58;15.72;;;;;;;5.88;100.00;65032.78;1746263;79;21072;-58
2022/02/22 03:13:47;;;;;;;38.17;15.40;;;;;;;5.91;100.00;64530.04;1719496;82;21029;-59
2022/02/22 03:16:14;;;;;;;29.77;14.83;;;;;;;5.92;100.00;64531.18;1793637;79;21094;-62
2022/02/22 03:18:42;;;;;;;32.33;14.63;;;;;;;5.95;100.00;63860.51;1779352;79;21080;-61
2022/02/22 03:21:09;;;;;;;34.85;15.85;;;;;;;5.96;100.00;64704.31;1798609;79;20966;-61
2022/02/22 03:23:43;;;;;;;34.00;16.45;;;;;;;5.98;100.00;65211.75;1798060;79;21037;-58
2022/02/22 03:26:10;;;;;;;31.70;14.80;;;;;;;5.98;100.00;65043.74;1796220;78;21005;-59
2022/02/22 03:28:37;;;;;;;33.73;15.80;;;;;;;6.01;100.00;64035.86;1780400;79;21158;-58
2022/02/22 03:31:04;;;;;;;30.30;14.43;;;;;;;6.04;100.00;63701.07;1793099;79;20961;-61
2022/02/22 03:33:32;;;;;;;27.77;14.85;;;;;;;6.05;100.00;64039.27;1791999;79;21070;-61
2022/02/22 03:36:01;;;;;;;32.05;14.95;;;;;;;6.06;100.00;64208.95;1789510;79;20998;-61
2022/02/22 03:38:28;;;;;;;31.52;15.08;;;;;;;6.07;100.00;64884.39;1788667;79;21001;-58
2022/02/22 03:40:55;;;;;;;34.05;15.35;;;;;;;6.10;100.00;64213.53;1784091;78;21115;-58
2022/02/22 03:43:21;;;;;;;37.73;15.43;;;;;;;6.10;100.00;65225.08;1787691;79;21025;-58
2022/02/22 03:45:49;;;;;;;32.70;14.75;;;;;;;6.11;100.00;65901.35;1772864;79;21010;-58
2022/02/22 03:48:16;;;;;;;34.58;14.90;;;;;;;6.12;100.00;66577.22;1721874;81;21114;-58
2022/02/22 03:50:44;;;;;;;34.85;15.15;;;;;;;6.15;100.00;66242.80;1795682;78;21048;-58
2022/02/22 03:53:11;;;;;;;32.83;14.63;;;;;;;6.17;100.00;65739.12;1789441;78;21199;-58
2022/02/22 03:55:39;;;;;;;27.42;14.25;;;;;;;6.18;100.00;67089.86;1794005;79;21084;-61
2022/02/22 03:58:06;;;;;;;34.92;14.95;;;;;;;6.17;100.00;68269.98;1795307;79;21085;-61
2022/02/22 04:00:35;;;;;;;28.95;13.98;;;;;;;6.18;100.00;68777.59;1725908;83;21001;-58
2022/02/22 04:03:08;;;;;;;29.80;14.43;;;;;;;6.19;100.00;69116.45;1715048;82;21010;-60
2022/02/22 04:05:32;;;;;;;30.08;14.15;;;;;;;6.19;100.00;70128.98;1790846;79;21183;-58
2022/02/22 04:07:59;;;;;;;30.95;14.18;;;;;;;6.20;100.00;70468.03;1782772;79;21092;-58
2022/02/22 04:10:26;;;;;;;31.57;14.50;;;;;;;6.22;100.00;69963.83;1786532;79;21040;-61
2022/02/22 04:12:54;;;;;;;33.18;14.80;;;;;;;6.22;100.00;70808.96;1769600;79;20996;-61
2022/02/22 04:15:21;;;;;;;25.72;13.72;;;;;;;6.24;100.00;70473.61;1783767;79;21026;-61
2022/02/22 04:17:48;;;;;;;33.67;15.08;;;;;;;6.26;100.00;70813.95;1781663;79;22002;-61
2022/02/22 04:20:15;;;;;;;28.92;13.68;;;;;;;6.28;100.00;70140.75;1773744;79;21072;-62
2022/02/22 04:22:43;;;;;;;28.87;14.30;;;;;;;6.29;100.00;70479.83;1767653;79;21066;-61
2022/02/22 04:25:10;;;;;;;31.87;14.05;;;;;;;6.33;100.00;70990.44;1775949;79;20993;-61
2022/02/22 04:27:39;;;;;;;26.50;13.60;;;;;;;6.34;100.00;70484.83;1790652;79;21063;-61
2022/02/22 04:30:10;;;;;;;31.57;14.43;;;;;;;6.37;100.00;71164.43;1794546;79;20997;-59
2022/02/22 04:32:37;;;;;;;34.27;13.15;;;;;;;6.40;100.00;69816.53;1755166;78;22002;-58
2022/02/22 04:35:06;;;;;;;29.70;13.55;;;;;;;6.44;100.00;69483.61;1763455;79;21014;-61
2022/02/22 04:37:35;;;;;;;23.85;13.35;;;;;;;6.46;100.00;70330.80;1771611;79;20993;-60
2022/02/22 04:40:02;;;;;;;28.17;13.90;;;;;;;6.48;100.00;71853.74;1757049;79;20946;-57
2022/02/22 04:42:31;;;;;;;33.02;14.23;;;;;;;6.49;100.00;74053.98;1782809;79;22318;-59
2022/02/22 04:44:58;;;;;;;32.38;14.00;;;;;;;6.49;100.00;76083.83;1784396;79;21019;-58
2022/02/22 04:47:26;;;;;;;27.73;13.68;;;;;;;6.49;100.00;77269.50;1793572;79;21087;-59
2022/02/22 04:49:53;;;;;;;30.05;13.78;;;;;;;6.51;100.00;76764.29;1726388;81;21054;-59
2022/02/22 04:52:20;;;;;;;31.37;13.60;;;;;;;6.52;100.00;77442.94;1712415;81;21548;-58
2022/02/22 04:54:48;;;;;;;27.48;13.28;;;;;;;6.54;100.00;78291.77;1761315;79;21494;-62
2022/02/22 04:57:15;;;;;;;33.05;14.13;;;;;;;6.56;100.00;78633.30;1765114;79;21553;-61
2022/02/22 04:59:42;;;;;;;27.87;13.43;;;;;;;6.59;100.00;78637.45;1766743;79;21547;-57
2022/02/22 05:02:09;;;;;;;30.85;13.53;;;;;;;6.63;100.00;78642.30;1763252;78;20994;-57
2022/02/22 05:04:35;;;;;;;32.55;13.75;;;;;;;6.64;100.00;79829.84;1766611;79;21644;-61
2022/02/22 05:07:04;;;;;;;30.95;13.85;;;;;;;6.65;100.00;81696.82;1724848;81;21228;-58
2022/02/22 05:09:31;;;;;;;32.48;12.80;;;;;;;6.67;100.00;83056.63;1723179;81;21037;-58
2022/02/22 05:11:59;;;;;;;30.88;13.28;;;;;;;6.71;100.00;82383.13;1758387;80;21068;-62
2022/02/22 05:14:26;;;;;;;33.50;13.40;;;;;;;6.73;100.00;84252.50;1738958;80;21053;-58
2022/02/22 05:16:53;;;;;;;26.90;11.78;;;;;;;6.74;100.00;86970.70;1709488;82;21074;-62
2022/02/22 05:19:20;;;;;;;28.65;12.98;;;;;;;6.75;100.00;89351.18;1719098;81;21116;-62
2022/02/22 05:21:47;;;;;;;27.30;13.40;;;;;;;6.79;100.00;90717.64;1717966;80;21053;-62
2022/02/22 05:24:14;;;;;;;32.35;13.90;;;;;;;6.82;100.00;91232.64;1727525;82;21084;-61
2022/02/22 05:26:42;;;;;;;28.85;12.28;;;;;;;6.84;100.00;93788.27;1730550;82;21092;-60
2022/02/22 05:29:09;;;;;;;26.23;12.98;;;;;;;6.88;100.00;96689.22;1713302;82;21132;-58
2022/02/22 05:31:36;;;;;;;24.70;11.97;;;;;;;6.88;100.00;100099.30;1737307;82;21846;-62
2022/02/22 05:34:03;;;;;;;29.18;12.70;;;;;;;6.91;100.00;101979.36;1714446;82;21526;-59
2022/02/22 05:36:31;;;;;;;29.02;11.78;;;;;;;6.94;100.00;103862.38;1733637;81;21731;-58
2022/02/22 05:38:58;;;;;;;24.52;12.23;;;;;;;6.97;100.00;105235.03;1725520;81;21459;-57
2022/02/22 05:41:25;;;;;;;28.73;12.45;;;;;;;7.00;100.00;106949.23;1719905;80;21036;-60
2022/02/22 05:43:52;;;;;;;25.05;11.75;;;;;;;7.02;100.00;111741.04;1761732;80;21755;-62
2022/02/22 05:46:20;;;;;;;31.57;11.78;;;;;;;7.04;100.00;115512.42;1763300;80;21092;-60
2022/02/22 05:48:47;;;;;;;28.83;12.35;;;;;;;7.05;100.00;121173.37;1757300;79;20969;-59
2022/02/22 05:51:15;;;;;;;31.82;13.15;;;;;;;7.05;100.00;127529.09;1755348;81;20915;-61
2022/02/22 05:53:42;;;;;;;24.05;12.53;;;;;;;7.06;100.00;132519.72;1753561;79;21709;-62
2022/02/22 05:56:09;;;;;;;34.38;13.28;;;;;;;7.07;100.00;137518.69;1758627;81;21116;-61
2022/02/22 05:58:37;;;;;;;23.52;12.13;;;;;;;7.10;100.00;140459.58;1714242;82;21049;-61
2022/02/22 06:01:04;;;;;;;22.75;11.00;;;;;;;7.11;100.00;144738.53;1751259;81;20910;-59
2022/02/22 06:03:30;;;;;;;21.57;11.60;;;;;;;7.16;100.00;145650.38;1756008;79;21037;-58
2022/02/22 06:05:58;;;;;;;28.83;11.43;;;;;;;7.19;100.00;148980.06;1724419;82;21025;-60
2022/02/22 06:08:27;;;;;;;25.55;10.78;;;;;;;7.24;100.00;149477.00;1720339;81;21907;-60
2022/02/22 06:10:54;;;;;;;28.83;11.20;;;;;;;7.26;100.00;149482.17;1734566;81;21112;-60
2022/02/22 06:13:21;;;;;;;25.12;12.70;;;;;;;7.29;100.00;149489.94;1754982;79;20961;-58
2022/02/22 06:15:48;;;;;;;19.92;10.65;;;;;;;7.32;100.00;149497.69;1757727;81;21017;-59
2022/02/22 06:18:16;;;;;;;26.12;11.57;;;;;;;7.36;100.00;149508.03;1747057;80;22201;-59
2022/02/22 06:20:44;;;;;;;25.15;11.45;;;;;;;7.39;100.00;149515.80;1739903;81;21846;-63
2022/02/22 06:23:13;;;;;;;27.30;11.60;;;;;;;7.45;100.00;149530.06;1761647;80;21416;-61
2022/02/22 06:25:40;;;;;;;27.00;10.68;;;;;;;7.50;100.00;149541.72;1732565;82;21013;-60
2022/02/22 06:28:07;;;;;;;25.90;10.38;;;;;;;7.56;100.00;149557.25;1726251;82;21057;-63
2022/02/22 06:30:35;;;;;;;26.30;10.58;;;;;;;7.63;100.00;149575.41;1729145;82;21508;-63
2022/02/22 06:33:04;;;;;;;24.18;10.30;;;;;;;7.72;100.00;149597.37;1704446;84;21444;-61
2022/02/22 06:35:31;;;;;;;24.02;9.70;;;;;;;7.80;100.00;149616.81;1726796;82;21490;-62
2022/02/22 06:37:59;;;;;;;25.52;8.58;;;;;;;7.88;100.00;149637.56;1733124;81;21035;-62
2022/02/22 06:40:27;;;;;;;25.43;8.48;;;;;;;7.96;100.00;149657.00;1719761;82;21151;-61
2022/02/22 06:42:54;;;;;;;24.75;9.13;;;;;;;8.01;100.00;149671.20;1726278;81;21140;-62
2022/02/22 06:45:22;;;;;;;17.67;7.87;;;;;;;8.07;100.00;149684.14;1715142;81;21799;-61
2022/02/22 06:47:49;;;;;;;23.83;8.93;;;;;;;8.12;100.00;149697.13;1715675;81;21084;-62
2022/02/22 06:50:16;;;;;;;19.32;8.83;;;;;;;8.11;100.00;149694.55;1714308;82;21557;-62
2022/02/22 06:52:43;;;;;;;22.25;8.48;;;;;;;8.15;100.00;149704.89;1728264;82;21558;-62
2022/02/22 06:55:11;;;;;;;20.32;8.65;;;;;;;8.22;100.00;149723.02;1730498;82;21013;-62
2022/02/22 06:57:39;;;;;;;20.27;8.23;;;;;;;8.28;100.00;149738.55;1722266;81;21289;-62
2022/02/22 07:00:09;;;;;;;20.35;8.33;;;;;;;8.38;100.00;149761.89;1720727;82;21071;-64
2022/02/22 07:02:38;;;;;;;19.37;7.47;;;;;;;8.45;100.00;149780.02;1733018;81;21153;-59
2022/02/22 07:05:07;;;;;;;21.33;8.23;;;;;;;8.52;100.00;149798.23;1731237;80;21143;-64
2022/02/22 07:07:36;;;;;;;18.45;8.03;;;;;;;8.58;100.00;149813.78;1727661;81;22138;-60
2022/02/22 07:10:08;;;;;;;21.52;8.25;;;;;;;8.63;100.00;149825.45;1744746;80;21072;-58
2022/02/22 07:12:35;;;;;;;20.40;8.68;;;;;;;8.66;100.00;149831.91;1745882;80;21062;-59
2022/02/22 07:15:04;;;;;;;19.42;8.25;;;;;;;8.72;100.00;149847.44;1740647;79;21631;-62
2022/02/22 07:17:32;;;;;;;25.02;9.05;;;;;;;8.81;100.00;149870.80;1746943;81;21624;-61
2022/02/22 07:19:59;;;;;;;24.85;9.10;;;;;;;8.86;100.00;149883.73;1750172;79;21036;-59
2022/02/22 07:22:26;;;;;;;20.20;8.83;;;;;;;8.92;100.00;149896.69;1743239;80;21049;-61
2022/02/22 07:24:54;;;;;;;24.50;9.65;;;;;;;8.99;100.00;149914.87;1732081;81;21048;-58
2022/02/22 07:27:22;;;;;;;23.77;9.53;;;;;;;9.06;100.00;149933.00;1724844;81;21521;-61
2022/02/22 07:29:49;;;;;;;25.40;9.13;;;;;;;9.15;100.00;149955.03;1719581;82;21108;-58
2022/02/22 07:32:17;;;;;;;22.05;8.98;;;;;;;9.24;100.00;149977.08;1721972;82;21069;-60
2022/02/22 07:34:47;;;;;;;20.65;8.53;;;;;;;9.33;100.00;150000.41;1725256;81;23277;-62
2022/02/22 07:37:14;;;;;;;19.67;8.78;;;;;;;9.43;100.00;150026.36;1725874;82;21096;-60
2022/02/22 07:39:41;;;;;;;26.62;8.85;;;;;;;9.53;100.00;150051.00;1723966;82;21025;-61
2022/02/22 07:42:09;;;;;;;30.75;9.00;;;;;;;9.62;100.00;150071.72;1729202;82;21014;-58
2022/02/22 07:44:37;;;;;;;21.57;8.55;;;;;;;9.70;100.00;150093.78;1728499;82;21076;-59
2022/02/22 07:47:04;;;;;;;16.85;7.95;;;;;;;9.81;100.00;150121.00;1726420;82;21123;-58
2022/02/22 07:49:31;;;;;;;21.52;8.80;;;;;;;9.89;100.00;150140.47;1726735;82;21072;-59
2022/02/22 07:51:58;;;;;;;27.70;9.05;;;;;;;10.01;100.00;150170.31;1722005;81;21645;-59
2022/02/22 07:54:25;;;;;;;25.15;9.33;;;;;;;10.16;100.00;150207.91;1718638;82;21047;-59
2022/02/22 07:56:51;;;;;;;21.65;8.23;;;;;;;10.31;100.00;150246.84;1728548;82;21050;-59
2022/02/22 07:59:20;;;;;;;22.45;8.75;;;;;;;10.44;100.00;150278.02;1732728;81;22196;-59
2022/02/22 08:01:50;;;;;;;24.85;8.33;;;;;;;10.56;100.00;150307.86;1725099;81;21075;-58
2022/02/22 08:04:16;;;;;;;18.80;8.68;;;;;;;10.65;100.00;150331.23;1726386;82;21152;-59
2022/02/22 08:06:43;;;;;;;20.08;7.87;;;;;;;10.73;100.00;150350.72;1728839;82;21084;-59
2022/02/22 08:09:10;;;;;;;21.85;8.45;;;;;;;10.82;100.00;150372.73;1756967;79;21017;-60
2022/02/22 08:11:37;;;;;;;19.12;8.73;;;;;;;10.91;99.63;150396.13;1748728;81;21071;-61
2022/02/22 08:14:05;;;;;;;22.77;9.80;;;;;;;11.03;98.90;150427.25;1757191;80;21028;-62
2022/02/22 08:16:32;;;;;;;24.47;8.75;;;;;;;11.16;98.08;150459.75;1729845;82;21487;-62
2022/02/22 08:19:01;;;;;;;22.13;7.75;;;;;;;11.27;97.14;150487.02;1729533;81;21064;-61
2022/02/22 08:21:29;;;;;;;21.40;7.47;;;;;;;11.38;96.02;150514.23;1720990;82;21104;-61
2022/02/22 08:23:56;;;;;;;22.67;7.92;;;;;;;11.48;95.01;150538.91;1720925;82;22112;-61
2022/02/22 08:26:23;;;;;;;22.87;7.78;;;;;;;11.55;94.20;150555.80;1726943;81;21068;-59
2022/02/22 08:28:49;;;;;;;26.02;8.33;;;;;;;11.64;93.85;150579.20;1758519;80;21037;-58
2022/02/22 08:31:15;;;;;;;21.57;8.63;;;;;;;11.74;92.94;150605.16;1720904;82;21093;-58
2022/02/22 08:33:42;;;;;;;20.80;8.08;;;;;;;11.83;92.18;150625.97;1768848;79;21076;-59
2022/02/22 08:36:12;;;;;;;18.02;7.97;;;;;;;11.93;91.51;150650.59;1747221;81;21135;-59
2022/02/22 08:38:42;;;;;;;18.52;7.85;;;;;;;12.00;90.61;150668.81;1757008;81;20976;-59
2022/02/22 08:41:09;;;;;;;16.55;7.62;;;;;;;12.07;89.91;150685.77;1750650;81;21008;-61
2022/02/22 08:43:35;;;;;;;18.32;6.95;;;;;;;12.16;89.15;150709.13;1757532;81;21028;-62
2022/02/22 08:46:02;;;;;;;19.25;7.72;;;;;;;12.25;88.38;150732.50;1759835;79;21013;-61
2022/02/22 08:48:29;;;;;;;22.82;8.10;;;;;;;12.31;87.42;150748.11;1755274;79;21241;-61
2022/02/22 08:50:55;;;;;;;23.02;7.83;;;;;;;12.33;86.57;150751.98;1755680;80;20952;-60
2022/02/22 08:53:25;;;;;;;20.15;8.15;;;;;;;12.35;85.90;150755.91;1749709;79;21691;-59
2022/02/22 08:55:51;;;;;;;18.62;7.28;;;;;;;12.34;85.32;150754.58;1745954;79;21084;-62
2022/02/22 08:58:18;;;;;;;18.27;7.10;;;;;;;12.32;84.89;150750.72;1759221;81;21094;-59
2022/02/22 09:00:44;;;;;;;22.00;7.90;;;;;;;12.32;84.48;150750.72;1737135;79;21048;-59
2022/02/22 09:03:11;;;;;;;15.18;7.45;;;;;;;12.32;84.20;150749.39;1730212;81;21028;-58
2022/02/22 09:05:38;;;;;;;18.25;7.22;;;;;;;12.34;84.01;150754.58;1753644;79;21945;-58
2022/02/22 09:08:05;;;;;;;17.95;7.42;;;;;;;12.36;83.82;150759.78;1748607;79;21103;-58
2022/02/22 09:10:34;;;;;;;19.90;7.67;;;;;;;12.35;83.47;150755.91;1751806;79;21568;-58
2022/02/22 09:13:00;;;;;;;17.98;7.70;;;;;;;12.32;83.25;150749.39;1752249;81;21798;-62
2022/02/22 09:15:31;;;;;;;18.95;7.35;;;;;;;12.25;82.95;150732.50;1749413;81;20996;-60
2022/02/22 09:17:56;;;;;;;21.77;7.70;;;;;;;12.16;82.83;150709.13;1747372;79;21045;-62
2022/02/22 09:20:24;;;;;;;20.68;7.40;;;;;;;12.06;82.81;150683.16;1742316;81;21084;-62
2022/02/22 09:22:51;;;;;;;18.07;8.08;;;;;;;11.97;82.92;150662.30;1723303;81;21048;-62
2022/02/22 09:25:22;;;;;;;21.80;8.25;;;;;;;11.88;83.06;150638.94;1747809;79;21487;-58
2022/02/22 09:27:52;;;;;;;16.65;7.78;;;;;;;11.80;83.32;150618.12;1750317;80;21039;-61
2022/02/22 09:30:19;;;;;;;22.60;8.20;;;;;;;11.74;83.63;150605.16;1748030;79;21060;-62
2022/02/22 09:32:48;;;;;;;22.40;8.68;;;;;;;11.70;83.90;150594.78;1747973;79;21663;-62
2022/02/22 09:35:17;;;;;;;24.52;7.78;;;;;;;11.70;83.86;150594.78;1778928;78;21019;-60
2022/02/22 09:37:44;;;;;;;18.07;8.30;;;;;;;11.68;83.78;150588.25;1786616;79;21116;-62
2022/02/22 09:40:13;;;;;;;27.48;8.05;;;;;;;11.60;83.62;150568.78;1783093;77;20997;-62
2022/02/22 09:42:42;;;;;;;17.30;7.97;;;;;;;11.53;83.68;150550.61;1781724;78;21428;-61
2022/02/22 09:45:11;;;;;;;21.75;8.45;;;;;;;11.46;83.87;150535.03;1776504;79;21112;-59
2022/02/22 09:47:40;;;;;;;24.57;8.98;;;;;;;11.43;83.94;150525.94;1785519;78;21048;-58
2022/02/22 09:50:08;;;;;;;22.35;8.50;;;;;;;11.37;83.96;150511.64;1762307;79;21135;-62
2022/02/22 09:52:36;;;;;;;27.77;9.23;;;;;;;11.38;84.47;150512.95;1790396;79;21624;-58
2022/02/22 09:55:04;;;;;;;21.57;8.35;;;;;;;11.44;84.62;150529.84;1784988;79;21036;-59
2022/02/22 09:57:32;;;;;;;22.73;8.93;;;;;;;11.49;84.40;150541.50;1792452;78;21030;-64
2022/02/22 10:00:08;;;;;;;24.55;9.80;;;;;;;11.53;84.26;150550.61;1794118;79;21379;-62
2022/02/22 10:02:49;;;;;;;20.37;8.78;;;;;;;11.58;84.31;150563.58;1735807;81;21607;-59
2022/02/22 10:05:33;;;;;;;21.75;8.23;;;;;;;11.64;84.02;150577.88;1793101;79;21041;-61
2022/02/22 10:10:41;;;;;;;28.77;9.60;;;;;;;11.62;83.36;150574.02;1738848;80;21056;-61
2022/02/22 10:13:10;;;;;;;18.07;8.48;;;;;;;11.61;83.50;150572.69;1772547;78;21092;-59
2022/02/22 10:15:41;;;;;;;21.12;8.43;;;;;;;11.64;83.33;150579.20;1769237;79;21873;-59
2022/02/22 10:18:09;;;;;;;25.40;9.50;;;;;;;11.63;83.08;150576.61;1779583;79;21379;-62
2022/02/22 10:20:36;;;;;;;23.60;9.13;;;;;;;11.60;83.21;150568.78;1781528;78;21033;-62
2022/02/22 10:23:06;;;;;;;21.27;8.68;;;;;;;11.60;83.16;150570.09;1780941;78;21077;-62
2022/02/22 10:25:35;;;;;;;20.68;9.45;;;;;;;11.58;83.26;150564.91;1779350;78;21083;-59
2022/02/22 10:28:04;;;;;;;27.30;9.08;;;;;;;11.61;83.34;150571.41;1780853;78;21126;-61
2022/02/22 10:30:40;;;;;;;23.57;9.15;;;;;;;11.63;83.17;150576.61;1785905;78;21533;-61
2022/02/22 10:33:16;;;;;;;24.25;8.83;;;;;;;11.64;83.10;150577.88;1779734;78;21156;-60
2022/02/22 10:35:51;;;;;;;24.75;9.28;;;;;;;11.64;82.89;150577.88;1779956;78;21623;-62
2022/02/22 10:38:25;;;;;;;19.73;9.53;;;;;;;11.63;82.83;150575.28;1782868;78;21040;-59
2022/02/22 10:41:01;;;;;;;27.75;10.48;;;;;;;11.63;82.79;150576.61;1778913;78;21571;-60
2022/02/22 10:43:34;;;;;;;25.40;10.13;;;;;;;11.62;82.76;150574.02;1788438;78;21092;-59
2022/02/22 10:46:04;;;;;;;27.65;9.98;;;;;;;11.62;82.76;150574.02;1786207;78;20992;-61
2022/02/22 10:48:41;;;;;;;28.07;8.68;;;;;;;11.58;82.24;150564.91;1780401;78;21107;-59
2022/02/22 10:51:15;;;;;;;24.82;8.50;;;;;;;11.51;81.90;150545.42;1762876;79;21057;-59
2022/02/22 10:53:48;;;;;;;25.77;9.30;;;;;;;11.41;81.84;150522.06;1785943;79;22201;-59
2022/02/22 10:56:17;;;;;;;23.22;8.60;;;;;;;11.34;82.15;150503.86;1778405;78;21135;-63
2022/02/22 10:58:44;;;;;;;32.35;9.45;;;;;;;11.28;82.15;150488.28;1784492;79;20937;-61
2022/02/22 11:01:14;;;;;;;23.92;9.28;;;;;;;11.21;82.24;150470.12;1788461;79;21021;-60
2022/02/22 11:03:45;;;;;;;34.35;8.93;;;;;;;11.13;82.56;150451.92;1779767;78;21775;-62
2022/02/22 11:06:19;;;;;;;36.65;10.03;;;;;;;11.09;82.65;150440.28;1789716;79;21056;-64
2022/02/22 11:08:51;;;;;;;38.98;9.25;;;;;;;10.97;82.68;150411.69;1784622;79;21486;-62
2022/02/22 11:11:29;;;;;;;39.73;9.48;;;;;;;10.86;82.99;150384.44;1786491;78;21111;-62
2022/02/22 11:14:26;;;;;;;39.30;12.47;;;;;;;10.77;83.21;150361.09;1777645;79;21028;-59
2022/02/22 11:16:58;;;;;;;28.35;9.33;;;;;;;10.67;83.58;150335.09;1784329;79;21096;-62
2022/02/22 11:19:30;;;;;;;39.05;12.90;;;;;;;10.58;83.83;150313.03;1761787;79;22004;-60
2022/02/22 11:21:59;;;;;;;36.20;12.73;;;;;;;10.49;84.21;150290.97;1780208;79;21407;-63